Time;durP1;ratioP1;P1;durP2;ratioP2;P2;SDS_P1;SDS_P2;PMS_P1;PMS_P2;Temp;Humidity;BMP_temperature;BMP_pressure;BME280_temperature;BME280_humidity;BME280_pressure;Samples;Min_cycle;Max_cycle;Signal;HPM_P1;HPM_P2
2022/01/30 00:01:23;;;;;;;32.63;17.10;;;;;;;;;;4951068;28;21070;-79
2022/01/30 00:03:49;;;;;;;24.87;15.33;;;;;;;;;;4943122;28;20422;-79
2022/01/30 00:06:15;;;;;;;26.90;15.43;;;;;;;;;;4949311;28;20489;-79
2022/01/30 00:08:41;;;;;;;25.97;15.10;;;;;;;;;;4950520;28;20452;-79
2022/01/30 00:11:14;;;;;;;26.13;14.93;;;;;;;;;;4948831;28;20410;-79
2022/01/30 00:13:40;;;;;;;26.67;15.60;;;;;;;;;;4947719;28;20438;-79
2022/01/30 00:16:09;;;;;;;27.53;15.43;;;;;;;;;;4953777;28;20476;-79
2022/01/30 00:19:02;;;;;;;23.77;15.27;;;;;;;;;;4948067;28;20422;-79
2022/01/30 00:21:34;;;;;;;26.50;14.97;;;;;;;;;;4950098;28;20438;-79
2022/01/30 00:24:19;;;;;;;26.20;15.23;;;;;;;;;;4947232;28;20979;-79
2022/01/30 00:26:47;;;;;;;23.53;14.43;;;;;;;;;;4942651;28;20628;-79
2022/01/30 00:29:13;;;;;;;25.27;14.40;;;;;;;;;;4964320;28;21298;-79
2022/01/30 00:31:39;;;;;;;22.77;13.20;;;;;;;;;;4950275;28;20425;-79
2022/01/30 00:34:06;;;;;;;25.40;13.83;;;;;;;;;;4942130;28;21300;-79
2022/01/30 00:36:32;;;;;;;23.57;14.30;;;;;;;;;;4943658;28;21269;-79
2022/01/30 00:38:59;;;;;;;25.13;14.80;;;;;;;;;;4948116;28;20492;-80
2022/01/30 00:41:26;;;;;;;27.23;14.67;;;;;;;;;;4964917;28;20918;-79
2022/01/30 00:43:52;;;;;;;25.77;14.63;;;;;;;;;;4947133;28;20878;-79
2022/01/30 00:46:18;;;;;;;26.30;14.70;;;;;;;;;;4948636;28;20437;-80
2022/01/30 00:48:44;;;;;;;24.37;14.00;;;;;;;;;;4946308;28;20881;-80
2022/01/30 00:51:10;;;;;;;25.13;14.87;;;;;;;;;;4953884;28;20425;-79
2022/01/30 00:53:36;;;;;;;26.10;15.27;;;;;;;;;;4952701;28;21298;-80
2022/01/30 00:56:03;;;;;;;27.53;14.77;;;;;;;;;;4952667;28;21358;-80
2022/01/30 00:58:29;;;;;;;24.83;13.67;;;;;;;;;;4951887;28;21268;-79
2022/01/30 01:00:55;;;;;;;26.40;15.20;;;;;;;;;;4947559;28;21109;-79
2022/01/30 01:03:21;;;;;;;24.90;14.33;;;;;;;;;;4949634;28;20437;-80
2022/01/30 01:05:49;;;;;;;23.90;14.03;;;;;;;;;;4948433;28;20505;-79
2022/01/30 01:08:28;;;;;;;23.73;14.50;;;;;;;;;;4945498;28;20532;-79
2022/01/30 01:11:02;;;;;;;27.47;15.40;;;;;;;;;;4953451;28;20446;-79
2022/01/30 01:20:59;;;;;;;25.03;15.10;;;;;;;;;;4948554;28;21074;-79
2022/01/30 01:24:47;;;;;;;40.90;17.43;;;;;;;;;;4944180;28;20449;-79
2022/01/30 01:27:13;;;;;;;29.63;15.40;;;;;;;;;;4944777;28;21339;-79
2022/01/30 01:29:39;;;;;;;26.50;15.97;;;;;;;;;;4947182;28;20611;-79
2022/01/30 01:32:06;;;;;;;33.00;17.13;;;;;;;;;;4948007;28;20444;-79
2022/01/30 01:34:36;;;;;;;33.47;17.13;;;;;;;;;;4945954;28;20415;-79
2022/01/30 01:37:02;;;;;;;26.70;16.33;;;;;;;;;;4945562;28;20536;-79
2022/01/30 01:39:28;;;;;;;32.17;17.63;;;;;;;;;;4950541;28;20446;-79
2022/01/30 01:41:55;;;;;;;33.13;17.30;;;;;;;;;;4951950;28;20426;-79
2022/01/30 01:44:32;;;;;;;26.60;16.00;;;;;;;;;;4948845;28;20977;-79
2022/01/30 01:46:58;;;;;;;27.27;16.20;;;;;;;;;;4943865;28;20873;-79
2022/01/30 01:49:28;;;;;;;28.20;16.70;;;;;;;;;;4950640;28;20406;-79
2022/01/30 01:54:40;;;;;;;32.03;17.10;;;;;;;;;;4950679;28;20492;-79
2022/01/30 01:57:06;;;;;;;29.90;17.00;;;;;;;;;;4949128;28;20937;-79
2022/01/30 01:59:32;;;;;;;29.90;16.87;;;;;;;;;;4953819;28;20689;-79
2022/01/30 02:02:01;;;;;;;32.13;18.03;;;;;;;;;;4947018;28;20532;-79
2022/01/30 02:04:28;;;;;;;29.70;16.77;;;;;;;;;;4941873;28;20444;-79
2022/01/30 02:07:07;;;;;;;29.40;15.87;;;;;;;;;;4945961;28;20942;-79
2022/01/30 02:09:34;;;;;;;26.97;15.77;;;;;;;;;;4953192;28;20435;-79
2022/01/30 02:12:02;;;;;;;28.30;15.63;;;;;;;;;;4955090;28;20434;-79
2022/01/30 02:14:39;;;;;;;26.73;15.17;;;;;;;;;;4949874;28;20421;-79
2022/01/30 02:27:57;;;;;;;25.40;14.47;;;;;;;;;;4947176;28;20874;-79
2022/01/30 02:30:26;;;;;;;23.97;13.93;;;;;;;;;;4953871;28;20430;-79
2022/01/30 02:32:54;;;;;;;22.67;13.93;;;;;;;;;;4954694;28;21418;-78
2022/01/30 02:35:20;;;;;;;25.10;14.57;;;;;;;;;;4972587;28;20561;-79
2022/01/30 02:37:48;;;;;;;22.57;14.00;;;;;;;;;;4948423;28;20441;-79
2022/01/30 02:40:14;;;;;;;22.50;14.03;;;;;;;;;;4948536;28;20422;-79
2022/01/30 02:42:46;;;;;;;26.20;15.03;;;;;;;;;;4951833;28;20458;-79
2022/01/30 02:45:14;;;;;;;23.87;14.17;;;;;;;;;;4953464;28;20533;-79
2022/01/30 02:47:54;;;;;;;23.67;14.47;;;;;;;;;;4955015;28;20450;-79
2022/01/30 02:50:33;;;;;;;23.27;13.23;;;;;;;;;;4949928;28;20437;-78
2022/01/30 02:53:01;;;;;;;27.50;14.20;;;;;;;;;;4951847;28;20431;-79
2022/01/30 02:55:27;;;;;;;25.37;14.20;;;;;;;;;;4947832;28;20833;-79
2022/01/30 02:57:54;;;;;;;23.63;14.07;;;;;;;;;;4945844;28;20430;-79
2022/01/30 03:00:20;;;;;;;26.33;14.73;;;;;;;;;;4946155;28;20433;-79
2022/01/30 03:02:46;;;;;;;25.33;14.97;;;;;;;;;;4953593;28;20492;-79
2022/01/30 03:05:12;;;;;;;27.93;14.63;;;;;;;;;;4953868;28;20450;-78
2022/01/30 03:07:38;;;;;;;27.00;15.47;;;;;;;;;;4944642;28;20926;-79
2022/01/30 03:10:05;;;;;;;24.07;14.40;;;;;;;;;;4945092;28;20422;-78
2022/01/30 03:12:31;;;;;;;25.10;15.63;;;;;;;;;;4950652;28;20476;-79
2022/01/30 03:14:57;;;;;;;26.57;15.00;;;;;;;;;;4967100;28;20499;-78
2022/01/30 03:17:23;;;;;;;23.97;14.37;;;;;;;;;;4942282;28;20892;-78
2022/01/30 03:19:49;;;;;;;26.50;15.20;;;;;;;;;;4948278;28;21188;-79
2022/01/30 03:22:16;;;;;;;25.37;14.37;;;;;;;;;;4951418;28;20421;-79
2022/01/30 03:24:42;;;;;;;25.87;15.80;;;;;;;;;;4955341;28;20422;-79
2022/01/30 03:27:11;;;;;;;23.77;15.27;;;;;;;;;;4950344;28;20896;-79
2022/01/30 03:29:38;;;;;;;30.93;14.60;;;;;;;;;;4950786;28;20437;-79
2022/01/30 03:32:05;;;;;;;26.53;16.00;;;;;;;;;;4950971;28;20455;-79
2022/01/30 03:34:31;;;;;;;26.50;15.97;;;;;;;;;;4956502;28;20420;-79
2022/01/30 03:36:57;;;;;;;29.17;16.37;;;;;;;;;;4954631;28;20441;-79
2022/01/30 03:39:23;;;;;;;31.50;18.03;;;;;;;;;;4949659;28;20410;-78
2022/01/30 03:41:49;;;;;;;28.20;16.90;;;;;;;;;;4950948;28;20422;-79
2022/01/30 03:44:15;;;;;;;32.30;16.20;;;;;;;;;;4962471;28;20422;-79
2022/01/30 03:46:41;;;;;;;29.40;18.07;;;;;;;;;;4942225;28;21139;-79
2022/01/30 03:49:07;;;;;;;30.67;18.03;;;;;;;;;;4953188;28;20429;-78
2022/01/30 03:51:33;;;;;;;29.17;16.90;;;;;;;;;;4950703;28;21129;-79
2022/01/30 03:54:00;;;;;;;30.20;18.53;;;;;;;;;;4947821;28;20426;-79
2022/01/30 03:56:26;;;;;;;32.00;18.03;;;;;;;;;;4950225;28;21334;-78
2022/01/30 03:58:52;;;;;;;31.00;17.60;;;;;;;;;;4948089;28;22105;-79
2022/01/30 04:01:18;;;;;;;31.30;17.47;;;;;;;;;;4970453;28;20429;-78
2022/01/30 04:03:44;;;;;;;32.47;17.97;;;;;;;;;;4946422;28;20422;-79
2022/01/30 04:06:12;;;;;;;30.63;18.23;;;;;;;;;;4950948;28;21230;-79
2022/01/30 04:08:39;;;;;;;29.87;19.87;;;;;;;;;;4943603;28;21093;-78
2022/01/30 04:11:05;;;;;;;33.73;19.63;;;;;;;;;;4954798;28;20510;-78
2022/01/30 04:13:31;;;;;;;33.77;19.43;;;;;;;;;;4968170;28;20452;-79
2022/01/30 04:15:57;;;;;;;33.37;20.30;;;;;;;;;;4953073;28;20461;-79
2022/01/30 04:18:23;;;;;;;31.50;20.07;;;;;;;;;;4950939;28;20426;-79
2022/01/30 04:20:51;;;;;;;29.97;19.47;;;;;;;;;;4945000;28;20517;-79
2022/01/30 04:23:17;;;;;;;35.63;19.93;;;;;;;;;;4949355;28;20504;-79
2022/01/30 04:25:43;;;;;;;32.73;20.63;;;;;;;;;;4949028;28;20422;-79
2022/01/30 04:28:09;;;;;;;34.80;20.33;;;;;;;;;;4948663;28;20430;-79
2022/01/30 04:30:36;;;;;;;37.20;22.60;;;;;;;;;;4942161;28;20841;-79
2022/01/30 04:33:02;;;;;;;35.20;22.50;;;;;;;;;;4947510;28;20426;-79
2022/01/30 04:35:30;;;;;;;35.30;22.27;;;;;;;;;;4953658;28;20493;-79
2022/01/30 04:38:14;;;;;;;41.03;23.63;;;;;;;;;;4952821;28;20438;-79
2022/01/30 04:42:00;;;;;;;42.90;24.10;;;;;;;;;;4942006;28;20449;-79
2022/01/30 05:05:48;;;;;;;49.00;29.53;;;;;;;;;;4941484;28;20417;-79
2022/01/30 05:08:14;;;;;;;47.00;28.27;;;;;;;;;;4952487;28;20557;-79
2022/01/30 05:10:40;;;;;;;50.90;30.93;;;;;;;;;;4950095;28;20430;-79
2022/01/30 05:13:10;;;;;;;53.00;29.83;;;;;;;;;;4950245;28;20410;-79
2022/01/30 05:15:36;;;;;;;52.97;30.73;;;;;;;;;;4947958;28;20446;-79
2022/01/30 05:18:02;;;;;;;57.53;32.97;;;;;;;;;;4947390;28;20438;-79
2022/01/30 05:20:29;;;;;;;60.47;34.13;;;;;;;;;;4949951;28;21056;-79
2022/01/30 05:22:56;;;;;;;56.93;33.63;;;;;;;;;;4951784;28;21140;-79
2022/01/30 05:25:22;;;;;;;56.80;32.57;;;;;;;;;;4946714;28;20422;-79
2022/01/30 05:27:48;;;;;;;58.97;34.10;;;;;;;;;;4957561;28;20899;-79
2022/01/30 05:30:14;;;;;;;62.40;33.13;;;;;;;;;;4948842;28;20990;-79
2022/01/30 05:32:41;;;;;;;62.37;34.60;;;;;;;;;;4949790;28;20445;-79
2022/01/30 05:35:07;;;;;;;65.97;34.73;;;;;;;;;;4943421;28;20457;-79
2022/01/30 05:37:37;;;;;;;62.17;35.23;;;;;;;;;;4944740;28;20450;-79
2022/01/30 05:40:03;;;;;;;60.23;33.70;;;;;;;;;;4949108;28;20465;-79
2022/01/30 05:42:30;;;;;;;56.80;33.63;;;;;;;;;;4946958;28;20520;-79
2022/01/30 05:47:28;;;;;;;66.70;37.30;;;;;;;;;;4942439;28;20591;-79
2022/01/30 05:49:54;;;;;;;60.17;35.13;;;;;;;;;;4966367;28;20465;-79
2022/01/30 05:52:22;;;;;;;61.33;35.03;;;;;;;;;;4945958;28;20904;-79
2022/01/30 05:54:48;;;;;;;62.00;34.00;;;;;;;;;;4951159;28;21129;-79
2022/01/30 05:57:14;;;;;;;61.40;35.77;;;;;;;;;;4951828;28;20581;-79
2022/01/30 05:59:40;;;;;;;60.10;34.97;;;;;;;;;;4945310;28;20430;-79
2022/01/30 06:02:06;;;;;;;71.87;37.60;;;;;;;;;;4944247;28;20545;-80
2022/01/30 06:04:32;;;;;;;68.23;36.67;;;;;;;;;;4948479;28;20425;-79
2022/01/30 06:07:00;;;;;;;68.53;36.00;;;;;;;;;;4953691;28;20433;-79
2022/01/30 06:09:26;;;;;;;62.50;35.70;;;;;;;;;;4945713;28;20851;-80
2022/01/30 06:11:53;;;;;;;64.13;35.07;;;;;;;;;;4943009;28;20833;-80
2022/01/30 06:14:23;;;;;;;61.90;36.17;;;;;;;;;;4947316;28;20760;-80
2022/01/30 06:16:49;;;;;;;60.70;34.50;;;;;;;;;;4944859;28;20795;-80
2022/01/30 06:19:18;;;;;;;59.63;33.33;;;;;;;;;;4948828;28;20424;-79
2022/01/30 06:21:45;;;;;;;57.50;35.40;;;;;;;;;;4948260;28;20854;-80
2022/01/30 06:24:11;;;;;;;58.73;32.57;;;;;;;;;;4941204;28;20518;-80
2022/01/30 06:26:37;;;;;;;61.90;32.90;;;;;;;;;;4950137;28;20520;-80
2022/01/30 06:29:03;;;;;;;58.70;32.60;;;;;;;;;;4946065;28;21094;-80
2022/01/30 06:31:29;;;;;;;70.30;33.63;;;;;;;;;;4945411;28;20512;-80
2022/01/30 06:33:55;;;;;;;55.67;30.73;;;;;;;;;;4945017;28;20516;-80
2022/01/30 06:36:21;;;;;;;56.80;32.20;;;;;;;;;;4947590;28;20454;-80
2022/01/30 06:38:49;;;;;;;51.80;30.80;;;;;;;;;;4953313;28;20406;-80
2022/01/30 06:41:15;;;;;;;53.20;30.67;;;;;;;;;;4950792;28;20504;-80
2022/01/30 06:43:41;;;;;;;59.63;29.93;;;;;;;;;;4948207;28;20433;-80
2022/01/30 06:46:10;;;;;;;66.00;34.07;;;;;;;;;;4948415;28;21051;-80
2022/01/30 06:48:36;;;;;;;54.43;31.57;;;;;;;;;;4968159;28;20426;-80
2022/01/30 06:51:04;;;;;;;54.37;30.80;;;;;;;;;;4949717;28;21410;-80
2022/01/30 06:53:31;;;;;;;57.17;30.80;;;;;;;;;;4948935;28;20945;-80
2022/01/30 06:55:57;;;;;;;51.10;29.13;;;;;;;;;;4946790;28;20536;-80
2022/01/30 06:58:23;;;;;;;53.80;30.10;;;;;;;;;;4953426;28;20433;-80
2022/01/30 07:00:49;;;;;;;53.80;29.60;;;;;;;;;;4954055;28;20425;-80
2022/01/30 07:03:15;;;;;;;49.57;27.40;;;;;;;;;;4953424;28;21241;-80
2022/01/30 07:05:41;;;;;;;51.70;28.77;;;;;;;;;;4946115;28;20429;-80
2022/01/30 07:08:07;;;;;;;53.03;31.03;;;;;;;;;;4947975;28;20418;-80
2022/01/30 07:10:33;;;;;;;52.90;29.43;;;;;;;;;;4967297;28;20806;-80
2022/01/30 07:12:59;;;;;;;50.30;28.43;;;;;;;;;;4953751;28;20465;-80
2022/01/30 07:15:26;;;;;;;49.03;28.47;;;;;;;;;;4953070;28;20460;-80
2022/01/30 07:17:52;;;;;;;48.37;26.70;;;;;;;;;;4944037;28;20467;-80
2022/01/30 07:20:18;;;;;;;50.10;27.53;;;;;;;;;;4948761;28;20414;-80
2022/01/30 07:22:44;;;;;;;47.50;26.50;;;;;;;;;;4951799;28;20506;-80
2022/01/30 07:25:10;;;;;;;46.50;26.87;;;;;;;;;;4950597;28;20418;-80
2022/01/30 07:27:37;;;;;;;49.00;27.40;;;;;;;;;;4948258;28;21319;-80
2022/01/30 07:30:04;;;;;;;44.30;25.47;;;;;;;;;;4951385;28;20506;-80
2022/01/30 07:32:30;;;;;;;50.10;25.83;;;;;;;;;;4950457;28;20437;-80
2022/01/30 07:34:56;;;;;;;48.37;26.17;;;;;;;;;;4949907;28;20521;-80
2022/01/30 07:37:23;;;;;;;48.80;26.20;;;;;;;;;;4946926;28;20410;-80
2022/01/30 07:39:49;;;;;;;49.03;26.40;;;;;;;;;;4950405;28;20422;-80
2022/01/30 07:42:15;;;;;;;44.10;25.40;;;;;;;;;;4952677;28;21014;-81
2022/01/30 07:44:41;;;;;;;45.50;25.97;;;;;;;;;;4955972;28;20421;-81
2022/01/30 07:47:08;;;;;;;45.10;25.20;;;;;;;;;;4949678;28;21109;-81
2022/01/30 07:49:34;;;;;;;44.00;25.37;;;;;;;;;;4946122;28;20468;-81
2022/01/30 07:52:00;;;;;;;45.97;25.80;;;;;;;;;;4950267;28;20430;-81
2022/01/30 07:54:26;;;;;;;45.37;27.20;;;;;;;;;;4949036;28;20525;-81
2022/01/30 07:56:52;;;;;;;42.17;26.27;;;;;;;;;;4949683;28;21259;-81
2022/01/30 07:59:19;;;;;;;45.97;27.70;;;;;;;;;;4949218;28;21104;-81
2022/01/30 08:01:46;;;;;;;46.40;26.93;;;;;;;;;;4952591;28;20997;-81
2022/01/30 08:04:12;;;;;;;47.77;26.87;;;;;;;;;;4949396;28;20418;-81
2022/01/30 08:06:38;;;;;;;48.17;27.10;;;;;;;;;;4949704;28;20430;-80
2022/01/30 08:09:04;;;;;;;45.80;26.70;;;;;;;;;;4949626;28;21252;-80
2022/01/30 08:11:31;;;;;;;48.83;27.10;;;;;;;;;;4946486;28;20421;-80
2022/01/30 08:13:57;;;;;;;44.63;26.03;;;;;;;;;;4946135;28;20445;-80
2022/01/30 08:16:24;;;;;;;46.03;26.50;;;;;;;;;;4948958;28;21319;-80
2022/01/30 08:18:50;;;;;;;45.50;26.03;;;;;;;;;;4948806;28;20430;-80
2022/01/30 08:21:16;;;;;;;43.47;26.83;;;;;;;;;;4953441;28;20434;-80
2022/01/30 08:23:42;;;;;;;46.37;26.33;;;;;;;;;;4949998;28;21157;-80
2022/01/30 08:26:09;;;;;;;46.93;25.20;;;;;;;;;;4949102;28;20536;-81
2022/01/30 08:28:35;;;;;;;40.37;25.10;;;;;;;;;;4945987;28;20425;-81
2022/01/30 08:31:01;;;;;;;42.70;26.63;;;;;;;;;;4949455;28;20425;-81
2022/01/30 08:33:27;;;;;;;47.67;28.17;;;;;;;;;;4953891;28;20609;-80
2022/01/30 08:35:53;;;;;;;45.27;26.70;;;;;;;;;;4952978;28;20627;-80
2022/01/30 08:38:20;;;;;;;50.67;26.80;;;;;;;;;;4946630;28;20420;-80
2022/01/30 08:40:49;;;;;;;48.17;27.90;;;;;;;;;;4941246;28;20440;-80
2022/01/30 08:43:15;;;;;;;50.10;27.83;;;;;;;;;;4942768;28;20496;-80
2022/01/30 08:45:42;;;;;;;52.27;28.63;;;;;;;;;;4961495;28;20441;-80
2022/01/30 08:48:08;;;;;;;47.40;28.67;;;;;;;;;;4950494;28;20442;-80
2022/01/30 08:50:34;;;;;;;50.87;30.60;;;;;;;;;;4949948;28;20974;-81
2022/01/30 08:53:01;;;;;;;52.03;30.10;;;;;;;;;;4953148;28;20425;-81
2022/01/30 08:55:33;;;;;;;46.80;28.67;;;;;;;;;;4953057;28;20464;-81
2022/01/30 08:58:07;;;;;;;52.30;31.60;;;;;;;;;;4942022;28;21208;-81
2022/01/30 09:00:33;;;;;;;56.00;30.30;;;;;;;;;;4957114;28;20433;-81
2022/01/30 09:03:00;;;;;;;52.13;30.97;;;;;;;;;;4940392;28;20751;-81
2022/01/30 09:05:26;;;;;;;55.77;31.70;;;;;;;;;;4937499;28;20457;-81
2022/01/30 09:07:52;;;;;;;56.60;33.87;;;;;;;;;;4939769;28;20465;-81
2022/01/30 09:10:20;;;;;;;58.30;33.87;;;;;;;;;;4938932;28;20434;-81
2022/01/30 09:12:47;;;;;;;53.60;31.80;;;;;;;;;;4967605;28;20427;-81
2022/01/30 09:15:15;;;;;;;66.97;35.73;;;;;;;;;;4946610;28;21533;-81
2022/01/30 09:17:41;;;;;;;57.27;33.40;;;;;;;;;;4953381;28;20421;-81
2022/01/30 09:20:08;;;;;;;64.23;35.80;;;;;;;;;;4947884;28;20425;-81
2022/01/30 09:22:34;;;;;;;56.83;33.00;;;;;;;;;;4942896;28;20414;-81
2022/01/30 09:25:00;;;;;;;58.60;33.63;;;;;;;;;;4958232;28;20437;-82
2022/01/30 09:27:26;;;;;;;52.33;32.80;;;;;;;;;;4958012;28;20755;-81
2022/01/30 09:29:52;;;;;;;53.50;33.33;;;;;;;;;;4937493;28;20541;-81
2022/01/30 09:32:18;;;;;;;57.37;33.13;;;;;;;;;;4954731;28;21303;-81
2022/01/30 09:34:45;;;;;;;58.93;34.20;;;;;;;;;;4936004;28;20493;-81
2022/01/30 09:37:11;;;;;;;56.80;33.67;;;;;;;;;;4943070;28;20725;-81
2022/01/30 09:39:38;;;;;;;57.27;32.83;;;;;;;;;;4940909;28;21291;-81
2022/01/30 09:42:04;;;;;;;53.10;32.60;;;;;;;;;;4957293;28;20439;-81
2022/01/30 09:44:31;;;;;;;54.43;31.07;;;;;;;;;;4934357;28;20651;-81
2022/01/30 09:46:57;;;;;;;54.07;31.43;;;;;;;;;;4939510;28;20253;-81
2022/01/30 09:49:24;;;;;;;56.53;31.57;;;;;;;;;;4945972;28;20187;-81
2022/01/30 09:51:52;;;;;;;53.20;30.47;;;;;;;;;;4942489;28;20182;-81
2022/01/30 09:54:18;;;;;;;54.97;30.43;;;;;;;;;;4937068;28;20464;-81
2022/01/30 09:56:44;;;;;;;50.53;30.60;;;;;;;;;;4944776;28;20248;-81
2022/01/30 09:59:10;;;;;;;56.53;30.87;;;;;;;;;;4940243;28;20187;-81
2022/01/30 10:01:37;;;;;;;55.10;31.03;;;;;;;;;;4945743;28;20828;-81
2022/01/30 10:04:04;;;;;;;50.30;29.80;;;;;;;;;;4955334;28;20245;-80
2022/01/30 10:06:37;;;;;;;48.03;29.23;;;;;;;;;;4935881;28;20747;-80
2022/01/30 10:09:10;;;;;;;50.33;29.60;;;;;;;;;;4940569;28;20254;-80
2022/01/30 10:12:01;;;;;;;49.70;29.33;;;;;;;;;;4957087;28;20294;-80
2022/01/30 10:14:28;;;;;;;48.77;27.43;;;;;;;;;;4931365;28;20355;-80
2022/01/30 10:16:54;;;;;;;50.97;28.17;;;;;;;;;;4942132;28;20507;-80
2022/01/30 10:19:21;;;;;;;50.13;28.13;;;;;;;;;;4941672;28;20719;-80
2022/01/30 10:22:08;;;;;;;48.90;27.30;;;;;;;;;;4949018;28;20297;-80
2022/01/30 10:24:38;;;;;;;43.00;26.13;;;;;;;;;;4943163;28;20174;-80
2022/01/30 10:27:18;;;;;;;48.30;26.50;;;;;;;;;;4944369;28;21004;-80
2022/01/30 10:29:45;;;;;;;43.53;26.33;;;;;;;;;;4939886;28;20174;-81
2022/01/30 10:32:11;;;;;;;50.47;27.63;;;;;;;;;;4946467;28;20519;-80
2022/01/30 10:34:39;;;;;;;47.27;27.27;;;;;;;;;;4946784;28;20175;-80
2022/01/30 10:37:12;;;;;;;40.63;25.33;;;;;;;;;;4943385;28;20211;-80
2022/01/30 10:39:57;;;;;;;42.20;25.13;;;;;;;;;;4948600;28;20183;-80
2022/01/30 10:42:33;;;;;;;46.87;25.43;;;;;;;;;;4947287;28;20286;-80
2022/01/30 10:44:59;;;;;;;38.73;24.10;;;;;;;;;;4962931;28;20171;-81
2022/01/30 10:47:25;;;;;;;44.47;25.70;;;;;;;;;;4947493;28;20189;-80
2022/01/30 10:49:51;;;;;;;46.77;24.13;;;;;;;;;;4943832;28;20179;-80
2022/01/30 10:52:19;;;;;;;38.63;23.33;;;;;;;;;;4945540;28;20446;-80
2022/01/30 10:54:49;;;;;;;43.43;23.87;;;;;;;;;;4945105;28;20175;-81
2022/01/30 10:57:16;;;;;;;42.67;24.17;;;;;;;;;;4962067;28;20178;-81
2022/01/30 10:59:43;;;;;;;41.50;23.97;;;;;;;;;;4948537;28;20199;-80
2022/01/30 11:02:12;;;;;;;44.20;25.30;;;;;;;;;;4950320;28;20225;-81
2022/01/30 11:04:38;;;;;;;40.53;24.17;;;;;;;;;;4948001;28;20996;-81
2022/01/30 11:07:05;;;;;;;38.83;21.83;;;;;;;;;;4951345;28;20968;-81
2022/01/30 11:12:04;;;;;;;37.40;23.27;;;;;;;;;;4948655;28;21011;-80
2022/01/30 11:14:40;;;;;;;33.23;19.43;;;;;;;;;;4951714;28;20225;-80
2022/01/30 11:17:09;;;;;;;37.57;21.00;;;;;;;;;;4947108;28;20257;-80
2022/01/30 11:19:38;;;;;;;35.10;21.13;;;;;;;;;;4939503;28;20179;-80
2022/01/30 11:22:09;;;;;;;39.07;21.53;;;;;;;;;;4940881;28;20179;-80
2022/01/30 11:24:36;;;;;;;36.10;21.57;;;;;;;;;;4946494;28;20175;-80
2022/01/30 11:27:04;;;;;;;39.77;20.97;;;;;;;;;;4946930;28;20186;-80
2022/01/30 11:29:30;;;;;;;36.40;21.43;;;;;;;;;;4945167;28;20179;-80
2022/01/30 11:31:56;;;;;;;37.63;21.27;;;;;;;;;;4944055;28;20195;-80
2022/01/30 11:34:23;;;;;;;35.97;21.97;;;;;;;;;;4942969;28;20229;-80
2022/01/30 11:36:50;;;;;;;41.60;23.47;;;;;;;;;;4947112;28;20252;-80
2022/01/30 11:39:19;;;;;;;35.47;21.23;;;;;;;;;;4948524;28;20280;-80
2022/01/30 11:42:04;;;;;;;36.20;23.27;;;;;;;;;;4949849;28;20588;-80
2022/01/30 11:44:30;;;;;;;36.90;21.70;;;;;;;;;;4961997;28;20183;-80
2022/01/30 11:47:02;;;;;;;34.53;19.90;;;;;;;;;;4948149;28;20182;-80
2022/01/30 11:49:39;;;;;;;38.37;21.63;;;;;;;;;;4950161;28;20874;-80
2022/01/30 11:52:14;;;;;;;37.73;21.30;;;;;;;;;;4939489;28;20186;-80
2022/01/30 11:54:48;;;;;;;35.90;22.23;;;;;;;;;;4939269;28;20186;-80
2022/01/30 11:57:27;;;;;;;35.83;21.30;;;;;;;;;;4944395;28;20198;-80
2022/01/30 11:59:53;;;;;;;39.30;21.70;;;;;;;;;;4943808;28;20256;-80
2022/01/30 12:02:28;;;;;;;35.37;21.43;;;;;;;;;;4936750;28;20197;-80
2022/01/30 12:05:01;;;;;;;32.63;20.17;;;;;;;;;;4943146;28;20607;-80
2022/01/30 12:07:47;;;;;;;33.03;19.93;;;;;;;;;;4949455;28;20179;-80
2022/01/30 12:10:19;;;;;;;35.40;20.50;;;;;;;;;;4945435;28;20190;-80
2022/01/30 12:12:48;;;;;;;46.73;27.47;;;;;;;;;;4947994;28;20185;-80
2022/01/30 12:15:32;;;;;;;33.20;21.57;;;;;;;;;;4944907;28;20209;-80
2022/01/30 12:17:59;;;;;;;70.93;39.07;;;;;;;;;;4946245;28;20189;-81
2022/01/30 12:20:26;;;;;;;34.80;19.70;;;;;;;;;;4940872;28;20791;-80
2022/01/30 12:22:53;;;;;;;43.63;27.03;;;;;;;;;;4944423;28;20182;-80
2022/01/30 12:25:25;;;;;;;71.80;44.23;;;;;;;;;;4937113;28;20694;-81
2022/01/30 12:27:54;;;;;;;50.70;26.40;;;;;;;;;;4955202;28;20185;-80
2022/01/30 12:30:30;;;;;;;44.67;27.23;;;;;;;;;;4941817;28;20863;-80
2022/01/30 12:32:56;;;;;;;34.73;20.10;;;;;;;;;;4940279;28;20817;-80
2022/01/30 12:35:22;;;;;;;36.20;20.73;;;;;;;;;;4946334;28;21001;-80
2022/01/30 12:37:48;;;;;;;30.30;19.80;;;;;;;;;;4945321;28;20259;-80
2022/01/30 12:40:16;;;;;;;29.73;19.10;;;;;;;;;;4939312;28;20167;-80
2022/01/30 12:42:42;;;;;;;33.10;19.63;;;;;;;;;;4937085;28;20174;-80
2022/01/30 12:45:09;;;;;;;28.70;18.87;;;;;;;;;;4944852;28;20190;-81
2022/01/30 12:47:56;;;;;;;51.10;28.47;;;;;;;;;;4936245;28;20171;-81
2022/01/30 12:50:31;;;;;;;35.23;21.43;;;;;;;;;;4958352;28;20179;-80
2022/01/30 12:52:58;;;;;;;35.73;21.67;;;;;;;;;;4945018;28;20182;-80
2022/01/30 12:55:24;;;;;;;35.37;21.90;;;;;;;;;;4947522;28;20540;-81
2022/01/30 12:57:54;;;;;;;26.43;17.93;;;;;;;;;;4941223;28;20694;-81
2022/01/30 13:00:20;;;;;;;30.67;19.27;;;;;;;;;;4941816;28;20206;-81
2022/01/30 13:03:00;;;;;;;28.67;18.27;;;;;;;;;;4944713;28;20178;-81
2022/01/30 13:05:27;;;;;;;28.00;17.87;;;;;;;;;;4957300;28;20206;-81
2022/01/30 13:07:54;;;;;;;31.03;18.23;;;;;;;;;;4942521;28;20612;-81
2022/01/30 13:10:21;;;;;;;32.47;19.33;;;;;;;;;;4935906;28;20736;-81
2022/01/30 13:12:47;;;;;;;32.43;19.20;;;;;;;;;;4937957;28;20186;-81
2022/01/30 13:15:15;;;;;;;31.43;18.70;;;;;;;;;;4944259;28;20230;-81
2022/01/30 13:17:47;;;;;;;33.30;19.70;;;;;;;;;;4944972;28;20489;-81
2022/01/30 13:20:14;;;;;;;29.80;18.37;;;;;;;;;;4937832;28;20655;-81
2022/01/30 13:22:41;;;;;;;29.47;18.80;;;;;;;;;;4943924;28;20599;-81
2022/01/30 13:25:09;;;;;;;32.30;19.47;;;;;;;;;;4943312;28;20911;-81
2022/01/30 13:27:45;;;;;;;32.50;19.67;;;;;;;;;;4938449;28;20175;-81
2022/01/30 13:30:18;;;;;;;36.17;19.80;;;;;;;;;;4944588;28;20677;-82
2022/01/30 13:32:44;;;;;;;33.73;19.83;;;;;;;;;;4938449;28;20766;-81
2022/01/30 13:35:12;;;;;;;32.90;19.13;;;;;;;;;;4942220;28;20179;-80
2022/01/30 13:37:39;;;;;;;32.20;19.80;;;;;;;;;;4940841;28;20175;-81
2022/01/30 13:40:20;;;;;;;34.23;20.10;;;;;;;;;;4938443;28;20175;-81
2022/01/30 13:42:50;;;;;;;31.90;20.23;;;;;;;;;;4956925;28;20300;-81
2022/01/30 13:47:54;;;;;;;30.00;19.73;;;;;;;;;;4947267;28;20623;-81
2022/01/30 13:50:20;;;;;;;32.00;20.73;;;;;;;;;;4946900;28;20224;-80
2022/01/30 13:52:47;;;;;;;31.23;20.23;;;;;;;;;;4945438;28;20226;-80
2022/01/30 13:55:13;;;;;;;30.47;19.37;;;;;;;;;;4941938;28;20183;-80
2022/01/30 13:57:43;;;;;;;36.03;21.13;;;;;;;;;;4945859;28;20202;-80
2022/01/30 14:00:10;;;;;;;32.10;20.70;;;;;;;;;;4949208;28;20185;-80
2022/01/30 14:02:36;;;;;;;33.03;20.47;;;;;;;;;;4951575;28;20253;-80
2022/01/30 14:05:23;;;;;;;32.40;20.20;;;;;;;;;;4938577;28;20592;-80
2022/01/30 14:07:50;;;;;;;31.93;20.10;;;;;;;;;;4945294;28;20175;-80
2022/01/30 14:10:17;;;;;;;33.27;20.50;;;;;;;;;;4950374;28;20175;-80
2022/01/30 14:12:43;;;;;;;32.30;20.20;;;;;;;;;;4924043;28;20175;-80
2022/01/30 14:15:12;;;;;;;34.17;19.63;;;;;;;;;;4946156;28;20520;-80
2022/01/30 14:17:42;;;;;;;32.57;19.70;;;;;;;;;;4946998;28;20241;-80
2022/01/30 14:20:10;;;;;;;31.60;19.40;;;;;;;;;;4948255;28;20167;-80
2022/01/30 14:22:37;;;;;;;29.53;19.33;;;;;;;;;;4948155;28;20221;-79
2022/01/30 14:25:05;;;;;;;31.43;19.73;;;;;;;;;;4944424;28;20214;-80
2022/01/30 14:27:36;;;;;;;33.40;19.77;;;;;;;;;;4959137;28;20179;-80
2022/01/30 14:30:05;;;;;;;33.07;20.20;;;;;;;;;;4964959;28;20588;-80
2022/01/30 14:32:35;;;;;;;35.00;21.13;;;;;;;;;;4944099;28;20229;-80
2022/01/30 14:35:04;;;;;;;32.40;20.83;;;;;;;;;;4965749;28;20190;-80
2022/01/30 14:37:31;;;;;;;29.13;19.67;;;;;;;;;;4944210;28;20245;-80
2022/01/30 14:40:08;;;;;;;32.83;21.10;;;;;;;;;;4946870;28;20969;-80
2022/01/30 14:42:34;;;;;;;36.07;21.80;;;;;;;;;;4948287;28;20258;-80
2022/01/30 14:45:11;;;;;;;30.43;20.47;;;;;;;;;;4947269;28;20187;-80
2022/01/30 14:47:37;;;;;;;30.27;18.97;;;;;;;;;;4938035;28;20458;-81
2022/01/30 14:50:04;;;;;;;32.27;20.63;;;;;;;;;;4945791;28;20175;-81
2022/01/30 14:52:30;;;;;;;34.73;21.03;;;;;;;;;;4960601;28;20183;-81
2022/01/30 14:54:56;;;;;;;35.13;21.13;;;;;;;;;;4946827;28;20181;-81
2022/01/30 14:57:24;;;;;;;33.53;20.43;;;;;;;;;;4937212;28;20199;-81
2022/01/30 14:59:53;;;;;;;36.10;20.43;;;;;;;;;;4900199;28;1155666;-81
2022/01/30 15:02:19;;;;;;;28.97;19.60;;;;;;;;;;4940205;28;20635;-81
2022/01/30 15:04:48;;;;;;;33.13;20.13;;;;;;;;;;4949300;28;21262;-81
2022/01/30 15:07:14;;;;;;;33.07;20.60;;;;;;;;;;4949355;28;20266;-81
2022/01/30 15:09:41;;;;;;;33.33;20.20;;;;;;;;;;4944565;28;20182;-81
2022/01/30 15:12:08;;;;;;;31.97;20.00;;;;;;;;;;4944494;28;20427;-81
2022/01/30 15:14:37;;;;;;;32.73;20.40;;;;;;;;;;4945592;28;20186;-81